East Durham, North Carolina
Current Conditions -  °F | °C
As of 5:51 PM on Thursday 18 Dec 2014 (Local Time) from KRDU Reporting Station
Broken Clouds Broken Clouds  
Wind Chill: 43°   Ceiling: 15000
Heat Index: 43°   Visibility: 10mi
Dew Point: 26°   Wind: 0mph
Humidity: 51%   Direction: NA
Pressure: 30.1"   Gusts: NA
Location:  35.9655°N, 78.8009°W
Report Text: KRDU 182251Z 00000KT 10SM SCT080 BKN150 BKN250 06/M03 A3010 RMK AO2 SLP196 T00611033
Loading
Personal Weather Stations






























Interactive Weather Map New forecast layout! Learn more

10-Day Weather Forecast

Advertisements
Track Severe Weather on mobile